createdAt,value
2023-01-29T00:00:22.225Z,68.46
2023-01-29T00:02:48.939Z,68.20
2023-01-29T00:05:31.011Z,68.79
2023-01-29T00:07:57.740Z,68.06
2023-01-29T00:10:27.442Z,68.38
2023-01-29T00:12:54.252Z,68.75
2023-01-29T00:15:21.073Z,68.17
2023-01-29T00:17:47.613Z,68.78
2023-01-29T00:20:14.619Z,67.77
2023-01-29T00:22:41.449Z,68.53
2023-01-29T00:25:08.927Z,68.79
2023-01-29T00:27:35.486Z,68.71
2023-01-29T00:30:13.195Z,68.17
2023-01-29T00:32:40.827Z,68.32
2023-01-29T00:35:09.105Z,68.30
2023-01-29T00:37:36.075Z,68.48
2023-01-29T00:40:03.502Z,68.75
2023-01-29T00:42:48.788Z,67.92
2023-01-29T00:45:15.402Z,67.86
2023-01-29T00:47:41.977Z,67.29
2023-01-29T00:50:11.437Z,67.89
2023-01-29T00:52:40.862Z,67.28
2023-01-29T00:55:09.917Z,66.31
2023-01-29T00:57:37.402Z,66.99
2023-01-29T01:00:07.574Z,67.15
2023-01-29T01:03:12.723Z,67.11
2023-01-29T01:05:39.489Z,67.35
2023-01-29T01:08:26.199Z,66.45
2023-01-29T01:10:59.431Z,66.31
2023-01-29T01:13:25.996Z,65.91
2023-01-29T01:15:52.824Z,65.89
2023-01-29T01:18:22.367Z,66.90
2023-01-29T01:20:51.680Z,66.21
2023-01-29T01:23:20.169Z,66.13
2023-01-29T01:25:46.808Z,66.22
2023-01-29T01:28:13.659Z,66.97
2023-01-29T01:30:40.304Z,66.97
2023-01-29T01:33:07.133Z,67.38
2023-01-29T01:35:33.718Z,67.39
2023-01-29T01:38:00.516Z,67.11
2023-01-29T01:40:27.205Z,67.15
2023-01-29T01:42:56.474Z,67.06
2023-01-29T01:45:32.361Z,67.61
2023-01-29T01:48:14.255Z,67.11
2023-01-29T01:50:50.876Z,67.47
2023-01-29T01:53:24.091Z,67.68
2023-01-29T01:55:58.996Z,67.51
2023-01-29T01:58:36.976Z,67.46
2023-01-29T02:01:08.987Z,67.17
2023-01-29T02:04:02.484Z,67.81
2023-01-29T02:06:49.015Z,67.76
2023-01-29T02:09:36.072Z,67.65
2023-01-29T02:12:22.721Z,67.46
2023-01-29T02:14:51.232Z,67.23
2023-01-29T02:17:20.035Z,67.59
2023-01-29T02:20:08.647Z,67.34
2023-01-29T02:22:55.189Z,68.09
2023-01-29T02:25:46.345Z,67.81
2023-01-29T02:28:36.652Z,67.98
2023-01-29T02:31:22.191Z,67.90
2023-01-29T02:34:06.807Z,68.64
2023-01-29T02:36:51.601Z,68.15
2023-01-29T02:39:44.760Z,67.75
2023-01-29T02:42:30.226Z,67.44
2023-01-29T02:45:10.418Z,68.20
2023-01-29T02:47:51.765Z,68.00
2023-01-29T02:50:24.430Z,68.22
2023-01-29T02:53:00.428Z,68.94
2023-01-29T02:55:40.251Z,69.32
2023-01-29T02:58:42.736Z,68.87
2023-01-29T03:01:39.937Z,68.72
2023-01-29T03:04:12.953Z,67.89
2023-01-29T03:06:45.177Z,67.70
2023-01-29T03:09:24.006Z,66.41
2023-01-29T03:11:54.595Z,67.64
2023-01-29T03:14:52.288Z,67.94
2023-01-29T03:17:22.861Z,66.94
2023-01-29T03:19:50.501Z,67.11
2023-01-29T03:22:21.029Z,67.14
2023-01-29T03:25:16.155Z,67.48
2023-01-29T03:28:10.602Z,68.46
2023-01-29T03:31:19.795Z,68.26
2023-01-29T03:33:54.834Z,68.58
2023-01-29T03:36:56.166Z,68.59
2023-01-29T03:39:28.149Z,68.05
2023-01-29T03:42:03.494Z,67.75
2023-01-29T03:44:52.249Z,67.72
2023-01-29T03:47:24.962Z,68.08
2023-01-29T03:50:09.351Z,67.82
2023-01-29T03:52:59.377Z,67.76
2023-01-29T03:55:42.476Z,67.89
2023-01-29T03:58:32.428Z,67.62
2023-01-29T04:01:04.828Z,67.90
2023-01-29T04:03:42.301Z,67.76
2023-01-29T04:06:20.664Z,67.07
2023-01-29T04:09:13.436Z,66.56
2023-01-29T04:11:45.396Z,66.05
2023-01-29T04:14:13.063Z,66.46
2023-01-29T04:16:44.544Z,67.25
2023-01-29T04:19:12.434Z,66.27
2023-01-29T04:21:39.726Z,66.15
2023-01-29T04:24:07.508Z,66.85
2023-01-29T04:26:57.972Z,66.21
2023-01-29T04:30:11.949Z,66.30
2023-01-29T04:32:58.075Z,66.28
2023-01-29T04:35:33.420Z,66.08
2023-01-29T04:38:22.137Z,65.77
2023-01-29T04:40:58.471Z,66.26
2023-01-29T04:43:25.242Z,66.16
2023-01-29T04:46:13.046Z,66.28
2023-01-29T04:48:58.398Z,66.04
2023-01-29T04:51:52.322Z,65.41
2023-01-29T04:54:28.021Z,65.77
2023-01-29T04:57:08.294Z,66.61
2023-01-29T04:59:46.566Z,66.87
2023-01-29T05:02:13.602Z,66.38
2023-01-29T05:04:42.577Z,65.41
2023-01-29T05:07:14.428Z,66.79
2023-01-29T05:09:44.966Z,66.56
2023-01-29T05:12:14.393Z,66.31
2023-01-29T05:14:43.426Z,66.35
2023-01-29T05:17:16.516Z,65.47
2023-01-29T05:19:43.236Z,66.56
2023-01-29T05:22:13.033Z,65.72
2023-01-29T05:24:39.878Z,66.78
2023-01-29T05:27:25.950Z,66.47
2023-01-29T05:29:52.943Z,66.28
2023-01-29T05:32:19.456Z,66.49
2023-01-29T05:34:46.871Z,66.91
2023-01-29T05:37:13.501Z,66.56
2023-01-29T05:39:40.058Z,66.41
2023-01-29T05:42:06.699Z,67.10
2023-01-29T05:44:33.538Z,66.18
2023-01-29T05:47:02.600Z,67.47
2023-01-29T05:49:29.185Z,66.32
2023-01-29T05:51:55.799Z,67.34
2023-01-29T05:54:22.410Z,67.36
2023-01-29T05:56:49.108Z,67.51
2023-01-29T05:59:16.630Z,65.95
2023-01-29T06:01:43.303Z,66.27
2023-01-29T06:04:09.874Z,66.94
2023-01-29T06:06:36.576Z,66.46
2023-01-29T06:09:03.479Z,66.05
2023-01-29T06:11:30.136Z,65.91
2023-01-29T06:13:56.781Z,66.53
2023-01-29T06:16:23.477Z,66.12
2023-01-29T06:18:50.135Z,66.19
2023-01-29T06:21:19.722Z,66.18
2023-01-29T06:23:46.828Z,66.86
2023-01-29T06:26:14.972Z,66.99
2023-01-29T06:28:42.227Z,65.81
2023-01-29T06:31:28.386Z,66.79
2023-01-29T06:33:55.831Z,66.90
2023-01-29T06:36:22.566Z,66.90
2023-01-29T06:38:49.219Z,67.42
2023-01-29T06:41:18.873Z,67.14
2023-01-29T06:43:46.650Z,66.45
2023-01-29T06:46:13.496Z,67.31
2023-01-29T06:48:40.211Z,66.32
2023-01-29T06:51:08.591Z,67.08
2023-01-29T06:53:36.346Z,66.97
2023-01-29T06:56:04.226Z,66.74
2023-01-29T06:58:30.936Z,66.54
2023-01-29T07:01:09.449Z,66.51
2023-01-29T07:03:36.825Z,66.58
2023-01-29T07:06:04.352Z,65.58
2023-01-29T07:08:30.950Z,65.70
2023-01-29T07:11:01.674Z,65.95
2023-01-29T07:13:28.987Z,66.28
2023-01-29T07:16:00.379Z,65.64
2023-01-29T07:18:30.988Z,66.46
2023-01-29T07:20:58.222Z,65.87
2023-01-29T07:23:25.881Z,65.05
2023-01-29T07:25:52.613Z,64.01
2023-01-29T07:28:20.744Z,63.35
2023-01-29T07:30:47.590Z,64.22
2023-01-29T07:33:14.237Z,65.06
2023-01-29T07:35:43.114Z,65.96
2023-01-29T07:38:11.115Z,64.82
2023-01-29T07:40:38.105Z,65.17
2023-01-29T07:43:07.009Z,65.35
2023-01-29T07:45:35.420Z,64.27
2023-01-29T07:48:04.263Z,65.47
2023-01-29T07:50:31.718Z,65.30
2023-01-29T07:52:58.611Z,65.37
2023-01-29T07:55:25.267Z,65.19
2023-01-29T07:57:56.391Z,64.03
2023-01-29T08:00:23.455Z,63.45
2023-01-29T08:02:50.103Z,63.05
2023-01-29T08:05:17.007Z,62.75
2023-01-29T08:07:44.849Z,62.87
2023-01-29T08:10:13.956Z,62.37
2023-01-29T08:12:40.504Z,62.05
2023-01-29T08:15:07.583Z,62.37
2023-01-29T08:17:34.779Z,61.61
2023-01-29T08:20:01.370Z,62.50
2023-01-29T08:22:27.976Z,62.61
2023-01-29T08:25:06.431Z,62.24
2023-01-29T08:27:34.775Z,62.09
2023-01-29T08:30:01.386Z,61.81
2023-01-29T08:32:27.998Z,63.12
2023-01-29T08:34:54.769Z,62.09
2023-01-29T08:37:21.333Z,61.96
2023-01-29T08:39:47.904Z,62.65
2023-01-29T08:42:14.665Z,60.45
2023-01-29T08:44:41.244Z,60.31
2023-01-29T08:47:08.217Z,60.71
2023-01-29T08:49:35.203Z,60.16
2023-01-29T08:52:03.132Z,59.69
2023-01-29T08:54:30.550Z,60.35
2023-01-29T08:56:57.252Z,61.30
2023-01-29T08:59:24.169Z,60.40
2023-01-29T09:01:50.790Z,62.07
2023-01-29T09:04:17.355Z,59.83
2023-01-29T09:06:43.953Z,59.78
2023-01-29T09:09:11.910Z,59.31
2023-01-29T09:11:38.796Z,59.41
2023-01-29T09:14:05.362Z,59.94
2023-01-29T09:16:31.973Z,59.50
2023-01-29T09:18:58.525Z,58.79
2023-01-29T09:21:25.088Z,58.45
2023-01-29T09:23:51.661Z,58.44
2023-01-29T09:26:18.263Z,59.90
2023-01-29T09:28:45.004Z,59.60
2023-01-29T09:31:11.607Z,60.09
2023-01-29T09:33:38.515Z,59.52
2023-01-29T09:36:05.585Z,59.84
2023-01-29T09:38:32.344Z,60.22
2023-01-29T09:41:26.382Z,58.98
2023-01-29T09:44:03.021Z,59.05
2023-01-29T09:46:40.623Z,59.41
2023-01-29T09:49:31.617Z,59.15
2023-01-29T09:52:28.368Z,59.38
2023-01-29T09:55:20.889Z,60.26
2023-01-29T09:57:51.085Z,57.45
2023-01-29T10:00:23.682Z,57.61
2023-01-29T10:03:14.931Z,58.30
2023-01-29T10:06:26.366Z,58.15
2023-01-29T10:08:55.785Z,58.08
2023-01-29T10:11:58.114Z,57.46
2023-01-29T10:14:32.863Z,58.07
2023-01-29T10:17:35.768Z,56.89
2023-01-29T10:20:02.581Z,56.26
2023-01-29T10:22:52.688Z,57.59
2023-01-29T10:25:27.491Z,57.65
2023-01-29T10:28:02.253Z,58.05
2023-01-29T10:30:33.976Z,57.92
2023-01-29T10:33:06.462Z,57.93
2023-01-29T10:35:46.032Z,56.10
2023-01-29T10:38:24.302Z,56.15
2023-01-29T10:40:55.389Z,55.42
2023-01-29T10:43:59.262Z,56.47
2023-01-29T10:46:59.998Z,59.08
2023-01-29T10:49:48.698Z,57.00
2023-01-29T10:52:50.746Z,55.76
2023-01-29T10:55:31.222Z,56.01
2023-01-29T10:57:57.801Z,55.55
2023-01-29T11:00:33.710Z,55.23
2023-01-29T11:03:26.224Z,55.43
2023-01-29T11:06:17.300Z,52.35
2023-01-29T11:08:55.166Z,54.46
2023-01-29T11:11:26.225Z,54.78
2023-01-29T11:14:07.185Z,53.78
2023-01-29T11:16:42.475Z,53.20
2023-01-29T11:19:09.241Z,52.67
2023-01-29T11:21:53.238Z,53.24
2023-01-29T11:24:19.896Z,52.55
2023-01-29T11:26:49.378Z,51.59
2023-01-29T11:29:43.123Z,50.48
2023-01-29T11:32:21.919Z,53.12
2023-01-29T11:35:06.065Z,54.42
2023-01-29T11:37:38.983Z,54.48
2023-01-29T11:40:24.031Z,52.66
2023-01-29T11:42:53.016Z,51.36
2023-01-29T11:45:32.398Z,53.44
2023-01-29T11:48:00.003Z,53.79
2023-01-29T11:50:33.085Z,52.60
2023-01-29T11:53:00.366Z,54.33
2023-01-29T11:55:40.997Z,54.05
2023-01-29T11:58:32.062Z,53.80
2023-01-29T12:00:59.939Z,54.13
2023-01-29T12:03:35.550Z,53.86
2023-01-29T12:06:18.653Z,52.75
2023-01-29T12:08:57.529Z,53.47
2023-01-29T12:11:30.202Z,53.27
2023-01-29T12:14:01.084Z,54.63
2023-01-29T12:16:40.245Z,51.31
2023-01-29T12:19:19.680Z,52.80
2023-01-29T12:21:51.042Z,53.92
2023-01-29T12:24:35.556Z,51.78
2023-01-29T12:27:34.534Z,51.83
2023-01-29T12:30:22.069Z,52.07
2023-01-29T12:33:04.374Z,54.00
2023-01-29T12:35:42.204Z,52.86
2023-01-29T12:38:17.839Z,53.54
2023-01-29T12:40:49.941Z,53.98
2023-01-29T12:43:18.858Z,53.60
2023-01-29T12:45:52.279Z,52.79
2023-01-29T12:48:49.502Z,51.49
2023-01-29T12:51:22.295Z,51.04
2023-01-29T12:54:04.075Z,50.55
2023-01-29T12:56:43.237Z,49.83
2023-01-29T12:59:38.422Z,49.42
2023-01-29T13:02:53.539Z,48.70
2023-01-29T13:05:34.199Z,47.56
2023-01-29T13:08:12.274Z,47.13
2023-01-29T13:10:43.407Z,47.67
2023-01-29T13:13:31.004Z,48.88
2023-01-29T13:16:00.196Z,50.47
2023-01-29T13:18:45.069Z,49.17
2023-01-29T13:21:22.113Z,47.87
2023-01-29T13:23:53.008Z,48.68
2023-01-29T13:26:23.734Z,50.19
2023-01-29T13:28:51.884Z,49.13
2023-01-29T13:31:35.328Z,50.66
2023-01-29T13:34:20.027Z,49.66
2023-01-29T13:36:50.151Z,49.46
2023-01-29T13:39:23.580Z,49.57
2023-01-29T13:41:52.206Z,51.36
2023-01-29T13:44:23.871Z,50.72
2023-01-29T13:46:55.815Z,50.37
2023-01-29T13:49:36.291Z,51.75
2023-01-29T13:52:34.333Z,53.30
2023-01-29T13:55:05.298Z,52.33
2023-01-29T13:57:44.104Z,53.43
2023-01-29T14:00:16.564Z,53.28
2023-01-29T14:02:43.193Z,53.70
2023-01-29T14:05:31.342Z,52.95
2023-01-29T14:08:13.576Z,51.26
2023-01-29T14:10:41.887Z,50.57
2023-01-29T14:13:21.471Z,49.00
2023-01-29T14:16:14.233Z,48.94
2023-01-29T14:18:48.324Z,48.04
2023-01-29T14:21:25.483Z,48.76
2023-01-29T14:23:54.707Z,49.97
2023-01-29T14:26:46.198Z,48.56
2023-01-29T14:29:14.541Z,48.49
2023-01-29T14:31:48.022Z,48.67
2023-01-29T14:34:31.852Z,49.99
2023-01-29T14:37:19.305Z,49.49
2023-01-29T14:39:55.903Z,51.28
2023-01-29T14:42:26.094Z,48.73
2023-01-29T14:44:55.717Z,46.90
2023-01-29T14:47:28.323Z,48.14
2023-01-29T14:49:57.326Z,47.17
2023-01-29T14:52:36.019Z,49.36
2023-01-29T14:55:09.003Z,48.57
2023-01-29T14:57:37.216Z,49.05
2023-01-29T15:00:09.540Z,48.92
2023-01-29T15:02:43.426Z,51.39
2023-01-29T15:05:28.917Z,52.31
2023-01-29T15:07:59.282Z,51.14
2023-01-29T15:10:48.423Z,50.07
2023-01-29T15:13:24.302Z,49.41
2023-01-29T15:16:09.150Z,51.53
2023-01-29T15:18:41.642Z,52.28
2023-01-29T15:21:14.638Z,55.19
2023-01-29T15:23:41.771Z,54.03
2023-01-29T15:26:17.354Z,53.09
2023-01-29T15:28:47.238Z,51.66
2023-01-29T15:31:18.462Z,51.38
2023-01-29T15:33:48.107Z,54.20
2023-01-29T15:36:22.726Z,54.68
2023-01-29T15:38:49.707Z,55.49
2023-01-29T15:41:23.646Z,56.80
2023-01-29T15:43:57.554Z,55.49
2023-01-29T15:46:34.292Z,57.31
2023-01-29T15:49:07.525Z,56.71
2023-01-29T15:51:34.838Z,57.28
2023-01-29T15:54:04.498Z,56.78
2023-01-29T15:56:33.377Z,57.37
2023-01-29T15:59:04.064Z,57.76
2023-01-29T16:01:32.376Z,59.00
2023-01-29T16:04:04.327Z,60.09
2023-01-29T16:06:38.002Z,59.79
2023-01-29T16:09:06.048Z,58.53
2023-01-29T16:11:34.477Z,58.10
2023-01-29T16:14:02.869Z,57.22
2023-01-29T16:16:29.565Z,59.33
2023-01-29T16:19:01.131Z,59.81
2023-01-29T16:21:31.162Z,60.78
2023-01-29T16:24:09.376Z,60.05
2023-01-29T16:26:43.764Z,59.85
2023-01-29T16:29:14.294Z,61.31
2023-01-29T16:31:44.849Z,63.54
2023-01-29T16:34:19.027Z,63.02
2023-01-29T16:36:47.633Z,63.74
2023-01-29T16:39:23.187Z,62.89
2023-01-29T16:42:17.369Z,64.63
2023-01-29T16:45:00.732Z,64.54
2023-01-29T16:47:33.465Z,65.31
2023-01-29T16:50:19.284Z,64.64
2023-01-29T16:53:03.584Z,65.31
2023-01-29T16:55:37.876Z,65.06
2023-01-29T16:58:20.360Z,64.75
2023-01-29T17:00:53.082Z,66.20
2023-01-29T17:03:20.164Z,65.99
2023-01-29T17:05:47.660Z,65.89
2023-01-29T17:08:25.514Z,66.12
2023-01-29T17:10:52.985Z,66.79
2023-01-29T17:13:29.013Z,67.08
2023-01-29T17:16:02.950Z,67.39
2023-01-29T17:18:30.087Z,68.14
2023-01-29T17:20:56.634Z,67.98
2023-01-29T17:23:23.473Z,68.19
2023-01-29T17:25:50.256Z,68.63
2023-01-29T17:28:18.349Z,68.92
2023-01-29T17:30:56.651Z,69.07
2023-01-29T17:33:27.147Z,69.58
2023-01-29T17:35:54.145Z,69.06
2023-01-29T17:38:26.429Z,69.50
2023-01-29T17:40:58.253Z,68.99
2023-01-29T17:43:24.932Z,68.41
2023-01-29T17:45:52.178Z,69.33
2023-01-29T17:48:29.351Z,69.07
2023-01-29T17:51:00.530Z,67.15
2023-01-29T17:53:43.234Z,66.29
2023-01-29T17:56:16.168Z,67.81
2023-01-29T17:58:43.178Z,68.58
2023-01-29T18:01:10.041Z,69.16
2023-01-29T18:03:37.115Z,68.86
2023-01-29T18:06:06.708Z,69.22
2023-01-29T18:08:35.484Z,69.26
2023-01-29T18:11:02.342Z,69.61
2023-01-29T18:13:28.965Z,69.01
2023-01-29T18:15:55.687Z,69.09
2023-01-29T18:18:24.229Z,69.26
2023-01-29T18:20:51.221Z,69.35
2023-01-29T18:23:18.119Z,69.51
2023-01-29T18:25:45.232Z,69.15
2023-01-29T18:28:19.798Z,68.91
2023-01-29T18:30:47.775Z,69.39
2023-01-29T18:33:15.825Z,69.48
2023-01-29T18:35:48.942Z,68.52
2023-01-29T18:38:16.288Z,68.77
2023-01-29T18:40:43.761Z,68.43
2023-01-29T18:43:10.403Z,67.69
2023-01-29T18:45:36.960Z,69.29
2023-01-29T18:48:03.779Z,68.88
2023-01-29T18:50:30.448Z,69.08
2023-01-29T18:52:57.292Z,68.94
2023-01-29T18:55:24.101Z,69.23
2023-01-29T18:58:28.621Z,67.95
2023-01-29T19:00:41.127Z,68.02
2023-01-29T19:03:07.893Z,68.96
2023-01-29T19:05:34.527Z,68.78
2023-01-29T19:08:02.213Z,68.62
2023-01-29T19:10:29.012Z,68.00
2023-01-29T19:12:55.607Z,67.61
2023-01-29T19:15:22.887Z,67.81
2023-01-29T19:17:50.689Z,67.30
2023-01-29T19:20:18.200Z,66.36
2023-01-29T19:22:44.763Z,66.47
2023-01-29T19:25:11.923Z,66.46
2023-01-29T19:27:38.735Z,66.27
2023-01-29T19:30:05.848Z,67.83
2023-01-29T19:32:32.796Z,67.60
2023-01-29T19:34:59.470Z,68.08
2023-01-29T19:37:26.176Z,68.62
2023-01-29T19:39:53.830Z,68.20
2023-01-29T19:42:20.940Z,69.02
2023-01-29T19:44:47.960Z,68.69
2023-01-29T19:47:14.724Z,69.17
2023-01-29T19:49:41.447Z,69.70
2023-01-29T19:52:14.789Z,70.12
2023-01-29T19:54:46.101Z,69.67
2023-01-29T19:57:12.726Z,70.60
2023-01-29T19:59:39.467Z,70.91
2023-01-29T20:02:06.444Z,70.32
2023-01-29T20:04:33.296Z,70.32
2023-01-29T20:06:59.860Z,70.54
2023-01-29T20:09:26.488Z,70.68
2023-01-29T20:11:53.010Z,71.66
2023-01-29T20:14:19.895Z,71.25
2023-01-29T20:16:46.474Z,70.47
2023-01-29T20:19:15.082Z,70.35
2023-01-29T20:21:45.443Z,70.50
2023-01-29T20:24:13.161Z,71.39
2023-01-29T20:26:39.921Z,70.67
2023-01-29T20:29:06.667Z,70.93
2023-01-29T20:31:33.875Z,70.72
2023-01-29T20:34:00.632Z,71.08
2023-01-29T20:36:27.783Z,70.55
2023-01-29T20:38:54.363Z,70.45
2023-01-29T20:41:21.372Z,70.50
2023-01-29T20:43:50.360Z,71.05
2023-01-29T20:46:17.769Z,69.37
2023-01-29T20:48:44.513Z,69.57
2023-01-29T20:51:17.260Z,70.39
2023-01-29T20:53:45.918Z,71.95
2023-01-29T20:56:14.376Z,70.90
2023-01-29T20:58:41.452Z,70.64
2023-01-29T21:01:10.371Z,71.05
2023-01-29T21:03:37.786Z,70.93
2023-01-29T21:06:04.697Z,71.06
2023-01-29T21:08:31.343Z,71.69
2023-01-29T21:10:57.933Z,71.42
2023-01-29T21:13:24.737Z,71.77
2023-01-29T21:15:51.385Z,71.45
2023-01-29T21:18:18.309Z,70.77
2023-01-29T21:20:44.908Z,71.17
2023-01-29T21:23:11.507Z,70.72
2023-01-29T21:25:38.811Z,71.02
2023-01-29T21:28:06.151Z,72.51
2023-01-29T21:30:32.918Z,72.03
2023-01-29T21:32:59.909Z,71.30
2023-01-29T21:35:26.518Z,72.11
2023-01-29T21:37:53.094Z,72.48
2023-01-29T21:40:21.309Z,72.62
2023-01-29T21:43:07.186Z,72.80
2023-01-29T21:45:35.602Z,72.50
2023-01-29T21:48:02.443Z,72.87
2023-01-29T21:50:29.416Z,73.34
2023-01-29T21:52:55.988Z,72.86
2023-01-29T21:55:22.754Z,73.61
2023-01-29T21:57:49.473Z,74.12
2023-01-29T22:00:16.961Z,73.68
2023-01-29T22:02:44.413Z,73.40
2023-01-29T22:05:19.484Z,73.43
2023-01-29T22:07:47.199Z,74.08
2023-01-29T22:10:14.802Z,73.20
2023-01-29T22:12:41.753Z,73.45
2023-01-29T22:15:09.366Z,73.44
2023-01-29T22:17:36.128Z,73.41
2023-01-29T22:20:03.028Z,73.35
2023-01-29T22:22:29.552Z,73.35
2023-01-29T22:24:58.384Z,73.89
2023-01-29T22:27:25.095Z,73.77
2023-01-29T22:29:51.807Z,73.92
2023-01-29T22:32:18.826Z,73.51
2023-01-29T22:34:45.683Z,72.22
2023-01-29T22:37:12.236Z,72.50
2023-01-29T22:39:39.113Z,72.68
2023-01-29T22:42:05.671Z,71.96
2023-01-29T22:44:32.297Z,72.19
2023-01-29T22:46:59.123Z,71.83
2023-01-29T22:49:26.439Z,72.28
2023-01-29T22:52:10.203Z,71.89
2023-01-29T22:54:42.145Z,72.43
2023-01-29T22:57:14.483Z,72.04
2023-01-29T22:59:41.107Z,72.89
2023-01-29T23:02:08.600Z,72.63
2023-01-29T23:04:35.370Z,72.86
2023-01-29T23:07:02.305Z,72.41
2023-01-29T23:09:29.181Z,71.91
2023-01-29T23:11:55.930Z,73.48
2023-01-29T23:14:22.514Z,73.92
2023-01-29T23:16:49.041Z,74.63
2023-01-29T23:19:15.731Z,74.11
2023-01-29T23:21:42.452Z,75.49
2023-01-29T23:24:09.658Z,76.15
2023-01-29T23:26:54.821Z,74.88
2023-01-29T23:29:21.491Z,74.85
2023-01-29T23:31:48.316Z,74.73
2023-01-29T23:34:15.386Z,74.50
2023-01-29T23:36:42.299Z,74.98
2023-01-29T23:39:09.423Z,74.33
2023-01-29T23:41:36.040Z,74.97
2023-01-29T23:44:02.662Z,75.00
2023-01-29T23:46:29.318Z,72.82
2023-01-29T23:48:55.972Z,73.07
2023-01-29T23:51:22.866Z,73.51
2023-01-29T23:53:49.498Z,72.62
2023-01-29T23:56:16.382Z,73.18
2023-01-29T23:58:43.959Z,74.72
